Time;durP1;ratioP1;P1;durP2;ratioP2;P2;SDS_P1;SDS_P2;PMS_P1;PMS_P2;Temp;Humidity;BMP_temperature;BMP_pressure;BME280_temperature;BME280_humidity;BME280_pressure;Samples;Min_cycle;Max_cycle;Signal;HPM_P1;HPM_P2
2023/06/19 00:02:16;;;;;;;2.35;2.25;;;22.50;77.00;;;;;;4988886;28;20048;-74
2023/06/19 00:04:42;;;;;;;2.72;2.63;;;22.50;77.00;;;;;;5000080;28;20034;-74
2023/06/19 00:07:07;;;;;;;2.53;2.42;;;22.50;77.00;;;;;;5004201;28;20702;-74
2023/06/19 00:09:33;;;;;;;2.58;2.45;;;22.50;77.00;;;;;;5004212;28;20124;-74
2023/06/19 00:11:59;;;;;;;2.50;2.40;;;22.50;77.80;;;;;;5004127;28;20049;-74
2023/06/19 00:14:25;;;;;;;2.45;2.35;;;22.50;77.00;;;;;;5000712;28;20133;-74
2023/06/19 00:16:51;;;;;;;2.63;2.53;;;22.50;77.00;;;;;;5001320;28;20049;-74
2023/06/19 00:19:17;;;;;;;2.72;2.60;;;22.50;76.90;;;;;;5007310;28;20042;-74
2023/06/19 00:21:42;;;;;;;2.80;2.67;;;22.50;77.70;;;;;;5005521;28;20054;-75
2023/06/19 00:24:08;;;;;;;2.70;2.60;;;22.50;76.90;;;;;;5007540;28;20056;-73
2023/06/19 00:26:34;;;;;;;2.90;2.80;;;22.50;77.00;;;;;;5021130;28;20038;-74
2023/06/19 00:29:00;;;;;;;2.60;2.50;;;22.50;77.00;;;;;;5006918;28;20096;-74
2023/06/19 00:31:27;;;;;;;2.67;2.50;;;22.50;76.90;;;;;;5004157;28;20046;-74
2023/06/19 00:33:52;;;;;;;2.75;2.65;;;22.50;76.90;;;;;;5021608;28;20041;-74
2023/06/19 00:36:23;;;;;;;2.40;2.30;;;22.50;76.90;;;;;;5006969;28;20412;-74
2023/06/19 00:38:48;;;;;;;2.83;2.67;;;22.50;76.80;;;;;;5008957;28;20042;-74
2023/06/19 00:41:15;;;;;;;2.55;2.45;;;22.50;76.80;;;;;;5005254;28;20459;-73
2023/06/19 00:43:40;;;;;;;2.58;2.47;;;22.50;76.80;;;;;;5006697;28;20049;-74
2023/06/19 00:46:06;;;;;;;2.15;1.95;;;22.50;76.80;;;;;;5006601;28;20038;-74
2023/06/19 00:48:32;;;;;;;2.72;2.63;;;22.50;76.90;;;;;;5006979;28;20173;-74
2023/06/19 00:50:58;;;;;;;2.40;2.30;;;22.50;76.80;;;;;;5008336;28;20132;-74
2023/06/19 00:53:24;;;;;;;2.45;2.35;;;22.50;76.80;;;;;;5004382;28;20125;-74
2023/06/19 00:55:51;;;;;;;2.50;2.40;;;22.50;76.80;;;;;;5000958;28;20408;-74
2023/06/19 00:58:17;;;;;;;2.47;2.38;;;22.50;76.80;;;;;;5007062;28;20545;-74
2023/06/19 01:00:43;;;;;;;2.85;2.75;;;22.50;76.80;;;;;;5006249;28;20389;-74
2023/06/19 01:03:08;;;;;;;2.30;2.20;;;22.50;76.80;;;;;;5021591;28;20045;-74
2023/06/19 01:05:34;;;;;;;3.15;2.20;;;22.50;76.80;;;;;;5021251;28;20168;-74
2023/06/19 01:08:23;;;;;;;2.60;2.50;;;22.50;76.80;;;;;;5004092;28;20728;-74
2023/06/19 01:10:53;;;;;;;2.55;2.45;;;22.50;76.70;;;;;;5014969;28;20041;-75
2023/06/19 01:13:39;;;;;;;2.85;2.65;;;22.50;76.70;;;;;;5005931;28;20053;-74
2023/06/19 01:16:04;;;;;;;2.65;2.55;;;22.50;77.50;;;;;;5003579;28;20149;-74
2023/06/19 01:18:31;;;;;;;2.45;2.35;;;22.50;76.70;;;;;;5005941;28;23384;-74
2023/06/19 01:20:57;;;;;;;2.33;2.22;;;22.50;76.70;;;;;;5008120;28;20036;-74
2023/06/19 01:23:22;;;;;;;2.35;2.25;;;22.50;76.70;;;;;;5004120;28;20042;-74
2023/06/19 01:25:48;;;;;;;2.72;2.53;;;22.50;76.70;;;;;;5004742;28;20045;-75
2023/06/19 01:28:13;;;;;;;2.38;2.28;;;22.50;76.70;;;;;;5005822;28;20050;-74
2023/06/19 01:30:40;;;;;;;2.70;2.60;;;22.50;76.70;;;;;;5006684;28;20072;-74
2023/06/19 01:33:10;;;;;;;2.45;2.35;;;22.50;76.70;;;;;;5020607;28;20070;-74
2023/06/19 01:35:36;;;;;;;2.97;2.88;;;22.50;76.70;;;;;;5018065;28;20092;-74
2023/06/19 01:38:02;;;;;;;3.22;3.03;;;22.50;76.70;;;;;;5003188;28;20041;-74
2023/06/19 01:40:31;;;;;;;2.90;2.60;;;22.50;76.70;;;;;;5006367;28;20124;-74
2023/06/19 01:42:59;;;;;;;2.75;2.65;;;22.50;77.50;;;;;;5004392;28;20459;-74
2023/06/19 01:45:24;;;;;;;2.85;2.65;;;22.40;76.60;;;;;;5004254;28;20037;-74
2023/06/19 01:47:50;;;;;;;2.42;2.33;;;22.40;76.60;;;;;;5006209;28;20037;-75
2023/06/19 01:50:16;;;;;;;2.67;2.47;;;22.40;76.60;;;;;;5006619;28;20072;-74
2023/06/19 01:52:41;;;;;;;2.72;2.53;;;22.50;76.70;;;;;;5006216;28;20049;-74
2023/06/19 01:55:07;;;;;;;2.88;2.70;;;22.50;76.70;;;;;;5003921;28;20116;-74
2023/06/19 01:57:33;;;;;;;2.33;2.22;;;22.50;76.70;;;;;;5003545;28;20069;-74
2023/06/19 01:59:58;;;;;;;2.65;2.55;;;22.40;76.60;;;;;;4989527;28;20042;-74
2023/06/19 02:02:24;;;;;;;2.30;2.20;;;22.40;76.60;;;;;;5004490;28;20411;-74
2023/06/19 02:04:49;;;;;;;2.65;2.55;;;22.40;76.70;;;;;;5002877;28;20033;-74
2023/06/19 02:07:15;;;;;;;2.40;2.30;;;22.40;76.60;;;;;;5005582;28;20046;-74
2023/06/19 02:09:41;;;;;;;2.47;2.38;;;22.40;76.60;;;;;;5004841;28;20061;-74
2023/06/19 02:12:07;;;;;;;2.50;2.40;;;22.40;76.60;;;;;;5006256;28;20065;-74
2023/06/19 02:14:33;;;;;;;2.83;2.63;;;22.40;76.60;;;;;;5005087;28;20042;-74
2023/06/19 02:16:58;;;;;;;2.28;2.17;;;22.40;76.60;;;;;;5002136;28;20088;-74
2023/06/19 02:19:24;;;;;;;2.60;2.50;;;22.40;76.50;;;;;;5005252;28;20053;-74
2023/06/19 02:21:49;;;;;;;2.38;2.28;;;22.40;76.50;;;;;;5005307;28;20054;-74
2023/06/19 02:24:15;;;;;;;2.50;2.40;;;22.40;76.50;;;;;;5004542;28;20550;-74
2023/06/19 02:26:40;;;;;;;2.50;2.40;;;22.40;76.50;;;;;;5004262;28;20408;-74
2023/06/19 02:29:06;;;;;;;2.72;2.63;;;22.40;76.50;;;;;;5000112;28;20046;-74
2023/06/19 02:31:31;;;;;;;2.30;2.20;;;22.40;77.40;;;;;;5002910;28;20054;-74
2023/06/19 02:33:57;;;;;;;2.60;2.50;;;22.40;76.50;;;;;;5004105;28;20125;-74
2023/06/19 02:36:22;;;;;;;2.30;2.20;;;22.40;77.30;;;;;;5004085;28;20037;-74
2023/06/19 02:38:48;;;;;;;2.13;2.03;;;22.40;76.50;;;;;;5006473;28;20569;-74
2023/06/19 02:41:14;;;;;;;2.47;2.38;;;22.40;76.50;;;;;;5004787;28;20068;-74
2023/06/19 02:43:41;;;;;;;2.90;2.80;;;22.40;76.50;;;;;;5005609;28;20046;-74
2023/06/19 02:46:07;;;;;;;2.50;2.40;;;22.40;77.30;;;;;;5003133;28;20072;-74
2023/06/19 02:48:32;;;;;;;2.60;2.50;;;22.40;76.50;;;;;;5019795;28;20070;-74
2023/06/19 02:50:58;;;;;;;2.90;2.80;;;22.40;76.60;;;;;;5006214;28;20050;-74
2023/06/19 02:53:23;;;;;;;2.60;2.50;;;22.40;76.60;;;;;;4988890;28;20124;-74
2023/06/19 02:55:49;;;;;;;2.22;2.13;;;22.40;76.50;;;;;;5005527;28;20404;-74
2023/06/19 02:58:15;;;;;;;2.47;2.28;;;22.40;76.60;;;;;;4999966;28;20133;-74
2023/06/19 03:00:40;;;;;;;2.65;2.45;;;22.40;76.50;;;;;;5009166;28;20534;-74
2023/06/19 03:03:06;;;;;;;2.42;2.33;;;22.40;76.60;;;;;;5018769;28;20074;-74
2023/06/19 03:05:31;;;;;;;2.40;2.30;;;22.40;76.50;;;;;;5019585;28;20100;-74
2023/06/19 03:07:57;;;;;;;2.30;2.20;;;22.40;76.60;;;;;;5004039;28;20041;-74
2023/06/19 03:10:22;;;;;;;2.28;2.17;;;22.40;76.50;;;;;;5016305;28;20404;-74
2023/06/19 03:12:48;;;;;;;2.42;2.33;;;22.40;76.60;;;;;;5000496;28;20133;-74
2023/06/19 03:15:14;;;;;;;2.83;2.72;;;22.40;76.60;;;;;;5004091;28;20491;-74
2023/06/19 03:17:39;;;;;;;2.60;2.50;;;22.40;76.50;;;;;;5005256;28;20052;-74
2023/06/19 03:20:05;;;;;;;2.38;2.28;;;22.40;76.60;;;;;;5017668;28;20455;-74
2023/06/19 03:22:31;;;;;;;2.88;2.78;;;22.30;76.40;;;;;;5002779;28;20131;-74
2023/06/19 03:24:57;;;;;;;2.75;2.65;;;22.40;76.50;;;;;;5003386;28;20515;-74
2023/06/19 03:27:22;;;;;;;2.75;2.65;;;22.30;76.50;;;;;;5000645;28;20053;-74
2023/06/19 03:29:48;;;;;;;2.65;2.55;;;22.40;76.50;;;;;;5006845;28;20555;-74
2023/06/19 03:32:13;;;;;;;3.03;2.70;;;22.40;76.50;;;;;;5003348;28;20431;-74
2023/06/19 03:34:39;;;;;;;2.75;2.60;;;22.40;76.50;;;;;;5003701;28;20050;-74
2023/06/19 03:37:05;;;;;;;2.33;2.22;;;22.40;76.50;;;;;;5004138;28;20038;-74
2023/06/19 03:39:31;;;;;;;2.40;2.30;;;22.40;76.50;;;;;;5003342;28;20458;-74
2023/06/19 03:41:56;;;;;;;2.35;2.25;;;22.30;76.40;;;;;;5005761;28;20042;-73
2023/06/19 03:44:22;;;;;;;2.40;2.30;;;22.30;76.40;;;;;;5001510;28;20038;-73
2023/06/19 03:46:47;;;;;;;2.38;2.28;;;22.40;76.50;;;;;;4999505;28;20133;-74
2023/06/19 03:49:13;;;;;;;2.67;2.58;;;22.30;76.40;;;;;;5003751;28;20451;-74
2023/06/19 03:51:38;;;;;;;2.33;2.22;;;22.30;76.40;;;;;;5003875;28;20074;-74
2023/06/19 03:54:04;;;;;;;2.30;2.20;;;22.40;76.50;;;;;;5009522;28;20092;-74
2023/06/19 03:56:30;;;;;;;2.65;2.55;;;22.30;76.30;;;;;;5008624;28;20137;-74
2023/06/19 03:58:55;;;;;;;2.33;2.22;;;22.40;76.50;;;;;;5004409;28;20046;-75
2023/06/19 04:01:21;;;;;;;2.50;2.40;;;22.30;76.40;;;;;;5008530;28;20049;-74
2023/06/19 04:03:46;;;;;;;2.50;2.40;;;22.30;76.50;;;;;;5004441;28;20097;-74
2023/06/19 04:06:12;;;;;;;2.22;2.13;;;22.30;76.40;;;;;;5023064;28;20045;-74
2023/06/19 04:08:37;;;;;;;2.45;2.28;;;22.30;76.30;;;;;;5009014;28;20041;-74
2023/06/19 04:11:03;;;;;;;2.28;2.17;;;22.30;76.40;;;;;;5006149;28;20054;-74
2023/06/19 04:13:28;;;;;;;2.58;2.47;;;22.40;76.40;;;;;;5007724;28;20064;-74
2023/06/19 04:15:54;;;;;;;2.55;2.38;;;22.30;76.30;;;;;;5008304;28;20038;-74
2023/06/19 04:18:19;;;;;;;2.55;2.45;;;22.30;76.30;;;;;;5006504;28;20816;-74
2023/06/19 04:20:45;;;;;;;2.40;2.30;;;22.30;76.30;;;;;;5022919;28;20092;-74
2023/06/19 04:23:10;;;;;;;2.35;2.25;;;22.30;76.30;;;;;;5007407;28;20117;-74
2023/06/19 04:25:37;;;;;;;2.80;2.70;;;22.30;76.30;;;;;;5006882;28;20531;-74
2023/06/19 04:28:03;;;;;;;2.40;2.30;;;22.30;76.30;;;;;;5006547;28;20474;-74
2023/06/19 04:30:30;;;;;;;2.42;2.33;;;22.30;76.30;;;;;;5006073;28;20057;-74
2023/06/19 04:32:59;;;;;;;2.45;2.35;;;22.30;76.30;;;;;;5025776;28;20046;-74
2023/06/19 04:35:24;;;;;;;2.83;2.72;;;22.30;76.30;;;;;;5005963;28;20148;-74
2023/06/19 04:37:50;;;;;;;2.50;2.40;;;22.30;76.30;;;;;;5006859;28;20136;-74
2023/06/19 04:40:15;;;;;;;2.60;2.50;;;22.30;76.30;;;;;;5018465;28;20046;-74
2023/06/19 04:42:41;;;;;;;2.35;2.25;;;22.30;76.30;;;;;;5003748;28;20045;-74
2023/06/19 04:45:07;;;;;;;2.40;2.20;;;22.30;76.30;;;;;;5008585;28;20458;-74
2023/06/19 04:47:33;;;;;;;2.55;2.45;;;22.30;76.30;;;;;;5007344;28;20042;-74
2023/06/19 04:49:59;;;;;;;2.70;2.60;;;22.30;76.30;;;;;;5007126;28;20660;-75
2023/06/19 04:52:24;;;;;;;2.17;2.08;;;22.30;76.30;;;;;;5007341;28;20058;-74
2023/06/19 04:54:50;;;;;;;2.60;2.50;;;22.30;76.30;;;;;;5004988;28;20045;-74
2023/06/19 04:57:15;;;;;;;2.42;2.33;;;22.30;76.20;;;;;;5006298;28;20053;-74
2023/06/19 04:59:45;;;;;;;2.17;2.08;;;22.30;76.20;;;;;;5019877;28;20030;-74
2023/06/19 05:02:11;;;;;;;2.40;2.30;;;22.30;76.30;;;;;;5005287;28;20479;-74
2023/06/19 05:04:36;;;;;;;2.08;1.98;;;22.30;77.00;;;;;;5003439;28;20034;-74
2023/06/19 05:07:02;;;;;;;2.30;2.20;;;22.30;76.20;;;;;;5003123;28;20038;-74
2023/06/19 05:09:28;;;;;;;2.38;2.28;;;22.30;76.20;;;;;;5005539;28;20775;-74
2023/06/19 05:11:54;;;;;;;2.75;2.65;;;22.30;76.20;;;;;;5008731;28;20062;-74
2023/06/19 05:14:19;;;;;;;2.58;2.47;;;22.30;76.10;;;;;;5006844;28;20046;-74
2023/06/19 05:16:45;;;;;;;2.45;2.25;;;22.30;76.90;;;;;;5004078;28;20427;-74
2023/06/19 05:19:10;;;;;;;2.50;2.40;;;22.30;76.20;;;;;;5004106;28;20026;-74
2023/06/19 05:21:36;;;;;;;2.70;2.60;;;22.30;76.20;;;;;;4987175;28;20040;-74
2023/06/19 05:24:02;;;;;;;2.78;2.67;;;22.30;76.10;;;;;;5007051;28;20507;-74
2023/06/19 05:26:27;;;;;;;2.90;2.70;;;22.30;76.10;;;;;;5001459;28;20415;-74
2023/06/19 05:28:53;;;;;;;2.50;2.40;;;22.30;76.90;;;;;;5003351;28;20599;-74
2023/06/19 05:31:19;;;;;;;2.70;2.50;;;22.30;76.10;;;;;;5004105;28;20053;-74
2023/06/19 05:33:45;;;;;;;2.75;2.53;;;22.30;76.10;;;;;;5021284;28;20038;-74
2023/06/19 05:36:10;;;;;;;2.28;2.17;;;22.30;76.10;;;;;;5006652;28;20073;-74
2023/06/19 05:38:36;;;;;;;2.63;2.53;;;22.30;76.10;;;;;;5002004;28;20038;-74
2023/06/19 05:41:02;;;;;;;2.65;2.55;;;22.30;76.10;;;;;;5003929;28;20125;-74
2023/06/19 05:43:28;;;;;;;2.60;2.40;;;22.30;76.00;;;;;;5006407;28;20320;-74
2023/06/19 05:45:55;;;;;;;2.42;2.33;;;22.30;76.00;;;;;;5006801;28;20518;-74
2023/06/19 05:48:21;;;;;;;2.92;2.72;;;22.30;76.00;;;;;;5004635;28;20057;-74
2023/06/19 05:50:47;;;;;;;2.70;2.60;;;22.40;76.10;;;;;;5007693;28;20038;-74
2023/06/19 05:53:12;;;;;;;2.58;2.47;;;22.30;75.90;;;;;;5002013;28;20042;-74
2023/06/19 05:55:38;;;;;;;2.90;2.70;;;22.40;76.00;;;;;;5005782;28;20161;-74
2023/06/19 05:58:03;;;;;;;2.53;2.42;;;22.40;76.00;;;;;;5006759;28;20042;-74
2023/06/19 06:00:30;;;;;;;2.60;2.50;;;22.30;76.00;;;;;;5003891;28;20507;-74
2023/06/19 06:02:59;;;;;;;2.30;2.20;;;22.30;75.90;;;;;;5006799;28;20392;-74
2023/06/19 06:05:25;;;;;;;2.80;2.70;;;22.30;76.00;;;;;;5016921;28;20042;-74
2023/06/19 06:07:50;;;;;;;2.45;2.35;;;22.30;76.00;;;;;;5005207;28;20046;-74
2023/06/19 06:10:16;;;;;;;2.45;2.25;;;22.40;76.10;;;;;;5002014;28;20125;-74
2023/06/19 06:12:43;;;;;;;2.83;2.72;;;22.30;75.90;;;;;;5019262;28;20080;-74
2023/06/19 06:15:09;;;;;;;2.88;2.78;;;22.40;76.00;;;;;;5003123;28;20065;-74
2023/06/19 06:17:34;;;;;;;3.03;2.92;;;22.30;75.90;;;;;;5004746;28;20625;-74
2023/06/19 06:20:00;;;;;;;2.60;2.50;;;22.40;76.10;;;;;;5004913;28;20037;-74
2023/06/19 06:22:25;;;;;;;3.17;2.97;;;22.30;75.90;;;;;;5000925;28;20048;-74
2023/06/19 06:24:51;;;;;;;3.05;2.85;;;22.30;75.90;;;;;;5005672;28;20156;-74
2023/06/19 06:27:16;;;;;;;2.83;2.72;;;22.40;76.00;;;;;;5006152;28;20423;-74
2023/06/19 06:29:42;;;;;;;3.03;2.92;;;22.40;75.90;;;;;;5006176;28;20046;-74
2023/06/19 06:32:08;;;;;;;2.63;2.53;;;22.30;75.90;;;;;;5005272;28;20133;-74
2023/06/19 06:34:34;;;;;;;2.60;2.50;;;22.40;75.90;;;;;;5001719;28;20038;-74
2023/06/19 06:37:00;;;;;;;2.65;2.55;;;22.40;76.70;;;;;;5001545;28;20041;-74
2023/06/19 06:39:26;;;;;;;3.25;3.15;;;22.40;75.90;;;;;;5004951;28;20050;-74
2023/06/19 06:41:51;;;;;;;2.80;2.70;;;22.40;76.00;;;;;;5005875;28;20133;-74
2023/06/19 06:44:17;;;;;;;3.00;2.90;;;22.40;76.70;;;;;;5004093;28;20049;-74
2023/06/19 06:46:43;;;;;;;2.70;2.60;;;22.40;76.00;;;;;;5005872;28;20062;-74
2023/06/19 06:49:08;;;;;;;2.90;2.70;;;22.40;76.70;;;;;;5003278;28;20042;-74
2023/06/19 06:51:34;;;;;;;2.58;2.47;;;22.40;75.90;;;;;;5003581;28;20050;-74
2023/06/19 06:53:59;;;;;;;2.58;2.47;;;22.40;75.90;;;;;;5007147;28;20468;-74
2023/06/19 06:56:25;;;;;;;2.50;2.40;;;22.40;75.90;;;;;;5003597;28;20057;-74
2023/06/19 06:58:50;;;;;;;2.75;2.65;;;22.40;75.90;;;;;;5003696;28;20651;-74
2023/06/19 07:01:16;;;;;;;2.78;2.60;;;22.40;75.90;;;;;;5003714;28;20124;-74
2023/06/19 07:03:41;;;;;;;2.58;2.47;;;22.40;75.90;;;;;;5018669;28;20045;-74
2023/06/19 07:06:07;;;;;;;3.00;2.80;;;22.40;75.80;;;;;;5005262;28;20050;-74
2023/06/19 07:08:33;;;;;;;2.10;2.00;;;22.40;75.80;;;;;;5003968;28;20396;-74
2023/06/19 07:10:58;;;;;;;2.28;2.17;;;22.50;76.60;;;;;;5003612;28;20038;-74
2023/06/19 07:13:24;;;;;;;2.70;2.60;;;22.40;75.80;;;;;;5003037;28;20129;-74
2023/06/19 07:15:50;;;;;;;2.72;2.63;;;22.40;75.80;;;;;;5001962;28;20859;-74
2023/06/19 07:18:16;;;;;;;3.92;3.05;;;22.40;75.80;;;;;;5003602;28;20128;-74
2023/06/19 07:20:41;;;;;;;2.40;2.30;;;22.40;75.80;;;;;;5004026;28;20455;-74
2023/06/19 07:23:07;;;;;;;2.58;2.47;;;22.40;75.90;;;;;;5004587;28;20042;-75
2023/06/19 07:25:33;;;;;;;2.42;2.33;;;22.50;75.90;;;;;;5003309;28;20044;-73
2023/06/19 07:28:00;;;;;;;2.95;2.85;;;22.40;76.60;;;;;;4987533;28;20081;-74
2023/06/19 07:30:25;;;;;;;2.70;2.60;;;22.40;75.80;;;;;;5002189;28;20041;-74
2023/06/19 07:32:51;;;;;;;2.58;2.47;;;22.50;75.90;;;;;;5005470;28;20107;-74
2023/06/19 07:35:17;;;;;;;2.90;2.80;;;22.50;75.90;;;;;;5002612;28;20474;-74
2023/06/19 07:37:42;;;;;;;2.78;2.58;;;22.50;75.80;;;;;;4999899;28;20064;-74
2023/06/19 07:40:09;;;;;;;2.55;2.40;;;22.50;75.80;;;;;;5004383;28;20069;-75
2023/06/19 07:42:34;;;;;;;2.50;2.40;;;22.50;75.80;;;;;;5003656;28;20110;-74
2023/06/19 07:45:00;;;;;;;2.90;2.80;;;22.50;75.80;;;;;;5006452;28;20474;-74
2023/06/19 07:47:26;;;;;;;2.47;2.38;;;22.50;75.80;;;;;;5002483;28;20096;-74
2023/06/19 07:49:51;;;;;;;2.83;2.63;;;22.50;75.90;;;;;;4999589;28;20626;-74
2023/06/19 07:52:17;;;;;;;2.70;2.60;;;22.50;75.90;;;;;;5004090;28;20070;-74
2023/06/19 07:54:53;;;;;;;2.50;2.40;;;22.50;75.90;;;;;;5017968;28;20685;-74
2023/06/19 07:57:19;;;;;;;2.60;2.50;;;22.50;75.90;;;;;;5000782;28;20040;-74
2023/06/19 07:59:46;;;;;;;2.63;2.53;;;22.50;75.80;;;;;;5003496;28;20406;-74
2023/06/19 08:02:11;;;;;;;2.50;2.40;;;22.50;75.70;;;;;;5001645;28;20041;-74
2023/06/19 08:04:37;;;;;;;2.65;2.55;;;22.50;75.50;;;;;;5003295;28;20057;-74
2023/06/19 08:07:03;;;;;;;2.65;2.55;;;22.60;75.40;;;;;;5003960;28;20049;-74
2023/06/19 08:09:28;;;;;;;2.50;2.40;;;22.60;75.40;;;;;;5003934;28;20069;-74
2023/06/19 08:11:54;;;;;;;2.75;2.65;;;22.60;75.30;;;;;;5004826;28;20060;-74
2023/06/19 08:14:19;;;;;;;2.90;2.80;;;22.60;75.30;;;;;;4998923;28;20046;-74
2023/06/19 08:16:45;;;;;;;2.65;2.53;;;22.60;75.20;;;;;;5003954;28;20044;-74
2023/06/19 08:19:10;;;;;;;2.80;2.60;;;22.60;75.10;;;;;;5002054;28;20519;-75
2023/06/19 08:21:36;;;;;;;2.80;2.70;;;22.60;75.40;;;;;;5003896;28;20424;-74
2023/06/19 08:24:02;;;;;;;3.58;3.38;;;22.60;75.30;;;;;;5005137;28;20049;-74
2023/06/19 08:26:28;;;;;;;3.35;3.15;;;22.60;75.40;;;;;;4999694;28;20499;-74
2023/06/19 08:28:55;;;;;;;2.85;2.75;;;22.50;75.40;;;;;;5004887;28;20057;-74
2023/06/19 08:31:26;;;;;;;2.72;2.63;;;22.60;75.40;;;;;;5001711;28;20097;-74
2023/06/19 08:33:55;;;;;;;2.58;2.47;;;22.60;75.40;;;;;;5005231;28;20041;-74
2023/06/19 08:36:21;;;;;;;2.50;2.40;;;22.60;75.80;;;;;;5002154;28;20089;-74
2023/06/19 08:38:49;;;;;;;2.67;2.58;;;22.60;75.10;;;;;;5006564;28;20396;-74
2023/06/19 08:41:16;;;;;;;2.75;2.65;;;22.60;75.00;;;;;;5002669;28;20085;-74
2023/06/19 08:43:42;;;;;;;2.70;2.60;;;22.60;74.90;;;;;;4990950;28;20388;-74
2023/06/19 08:46:13;;;;;;;2.85;2.65;;;22.60;74.80;;;;;;5005054;28;20060;-74
2023/06/19 08:48:39;;;;;;;2.88;2.78;;;22.60;74.90;;;;;;5005090;28;20400;-74
2023/06/19 08:51:05;;;;;;;2.60;2.50;;;22.60;74.80;;;;;;5021639;28;20504;-74
2023/06/19 08:53:45;;;;;;;2.67;2.55;;;22.60;74.90;;;;;;5004423;28;20185;-74
2023/06/19 08:56:10;;;;;;;2.53;2.42;;;22.60;74.80;;;;;;5013952;28;20113;-74
2023/06/19 08:58:37;;;;;;;2.75;2.65;;;22.60;74.80;;;;;;5006383;28;20480;-74
2023/06/19 09:01:02;;;;;;;3.08;2.88;;;22.70;74.80;;;;;;5004457;28;20113;-74
2023/06/19 09:03:28;;;;;;;3.15;2.97;;;22.70;74.80;;;;;;5019100;28;20065;-74
2023/06/19 09:05:54;;;;;;;3.08;2.97;;;22.60;74.80;;;;;;5008539;28;20054;-74
2023/06/19 09:08:21;;;;;;;3.00;2.90;;;22.70;74.80;;;;;;5007248;28;20030;-74
2023/06/19 09:11:00;;;;;;;2.80;2.70;;;22.70;74.80;;;;;;5005636;28;20038;-74
2023/06/19 09:13:26;;;;;;;2.80;2.70;;;22.70;74.70;;;;;;5006020;28;20053;-74
2023/06/19 09:15:59;;;;;;;3.17;3.03;;;22.70;74.80;;;;;;5020818;28;20033;-74
2023/06/19 09:18:25;;;;;;;3.20;3.00;;;22.70;74.80;;;;;;5004270;28;20060;-74
2023/06/19 09:20:53;;;;;;;3.25;2.95;;;22.70;74.90;;;;;;5020136;28;20381;-74
2023/06/19 09:23:19;;;;;;;2.70;2.60;;;22.70;74.90;;;;;;5005396;28;20423;-74
2023/06/19 09:25:46;;;;;;;3.35;3.15;;;22.70;74.90;;;;;;5018128;28;20558;-74
2023/06/19 09:28:19;;;;;;;3.17;3.05;;;22.70;74.80;;;;;;5001484;28;20160;-74
2023/06/19 09:31:01;;;;;;;2.92;2.83;;;22.70;74.80;;;;;;5000824;28;20124;-74
2023/06/19 09:33:28;;;;;;;2.85;2.75;;;22.70;75.60;;;;;;5004600;28;20065;-74
2023/06/19 09:35:54;;;;;;;2.90;2.80;;;22.70;74.80;;;;;;5023092;28;20091;-74
2023/06/19 09:38:21;;;;;;;2.65;2.55;;;22.70;74.80;;;;;;5004428;28;20140;-74
2023/06/19 09:40:48;;;;;;;2.70;2.60;;;22.70;74.70;;;;;;4990335;28;20073;-74
2023/06/19 09:43:17;;;;;;;2.63;2.53;;;22.70;74.80;;;;;;5005167;28;20192;-74
2023/06/19 09:45:43;;;;;;;2.83;2.63;;;22.70;74.80;;;;;;5005054;28;20087;-74
2023/06/19 09:48:08;;;;;;;2.72;2.63;;;22.70;75.60;;;;;;5008440;28;20395;-74
2023/06/19 09:50:34;;;;;;;2.55;2.45;;;22.70;74.80;;;;;;5019184;28;20099;-74
2023/06/19 09:52:59;;;;;;;2.90;2.70;;;22.70;74.80;;;;;;5005495;28;20043;-74
2023/06/19 09:55:28;;;;;;;2.83;2.72;;;22.70;74.80;;;;;;5005109;28;20042;-74
2023/06/19 09:57:54;;;;;;;2.65;2.55;;;22.70;74.80;;;;;;5002822;28;20042;-73
2023/06/19 10:00:22;;;;;;;2.47;2.38;;;22.70;75.00;;;;;;5002430;28;20034;-74
2023/06/19 10:02:48;;;;;;;2.60;2.50;;;22.70;75.30;;;;;;5005751;28;20050;-74
2023/06/19 10:05:14;;;;;;;3.17;2.97;;;22.70;75.00;;;;;;5005492;28;20080;-73
2023/06/19 10:07:44;;;;;;;2.45;2.35;;;22.70;74.90;;;;;;5002648;28;20507;-74
2023/06/19 10:10:23;;;;;;;2.50;2.40;;;22.70;74.80;;;;;;5003829;28;20124;-73
2023/06/19 10:12:49;;;;;;;2.90;2.80;;;22.70;74.80;;;;;;5000864;28;20516;-74
2023/06/19 10:15:30;;;;;;;2.80;2.70;;;22.70;74.70;;;;;;5006079;28;20053;-74
2023/06/19 10:18:03;;;;;;;2.65;2.55;;;22.80;74.80;;;;;;5006926;28;20061;-74
2023/06/19 10:20:32;;;;;;;2.65;2.55;;;22.70;74.70;;;;;;5005356;28;20046;-74
2023/06/19 10:23:10;;;;;;;2.60;2.50;;;22.80;74.70;;;;;;5004345;28;20053;-74
2023/06/19 10:25:41;;;;;;;2.60;2.50;;;22.80;74.60;;;;;;5003968;28;20105;-74
2023/06/19 10:28:26;;;;;;;2.70;2.60;;;22.80;74.60;;;;;;4998441;28;20042;-74
2023/06/19 10:31:02;;;;;;;2.60;2.50;;;22.80;74.50;;;;;;5005234;28;20045;-74
2023/06/19 10:33:33;;;;;;;2.45;2.35;;;22.80;74.50;;;;;;5002493;28;20475;-74
2023/06/19 10:36:13;;;;;;;2.15;2.05;;;22.80;74.50;;;;;;5008064;28;20030;-74
2023/06/19 10:38:38;;;;;;;2.47;2.38;;;22.80;74.60;;;;;;5005648;28;20519;-74
2023/06/19 10:41:04;;;;;;;2.88;2.78;;;22.80;74.50;;;;;;5004689;28;20041;-74
2023/06/19 10:43:32;;;;;;;2.67;2.58;;;22.80;74.40;;;;;;5002660;28;20407;-74
2023/06/19 10:45:58;;;;;;;3.05;2.85;;;22.80;74.50;;;;;;5019202;28;20084;-74
2023/06/19 10:48:24;;;;;;;2.70;2.60;;;22.80;74.40;;;;;;4987720;28;20491;-74
2023/06/19 10:50:49;;;;;;;2.80;2.70;;;22.80;74.40;;;;;;5005423;28;20057;-74
2023/06/19 10:53:35;;;;;;;2.95;2.75;;;22.80;74.30;;;;;;5002389;28;20507;-74
2023/06/19 10:56:01;;;;;;;2.40;2.30;;;22.90;74.40;;;;;;5004673;28;20042;-74
2023/06/19 10:58:28;;;;;;;3.17;2.97;;;22.90;74.30;;;;;;5004757;28;20042;-74
2023/06/19 11:00:53;;;;;;;2.83;2.72;;;22.80;74.30;;;;;;5001890;28;20041;-74
2023/06/19 11:03:22;;;;;;;2.53;2.42;;;22.90;74.40;;;;;;5005694;28;20069;-74
2023/06/19 11:05:48;;;;;;;2.60;2.50;;;22.90;74.40;;;;;;5019785;28;20057;-74
2023/06/19 11:08:23;;;;;;;2.65;2.55;;;22.90;74.40;;;;;;4987379;28;21584;-73
2023/06/19 11:10:49;;;;;;;2.20;2.10;;;22.90;74.40;;;;;;5000902;28;20522;-74
2023/06/19 11:13:16;;;;;;;2.20;2.10;;;22.90;74.30;;;;;;5002787;28;20050;-74
2023/06/19 11:15:41;;;;;;;2.30;2.20;;;22.90;74.40;;;;;;5017765;28;22708;-74
2023/06/19 11:18:07;;;;;;;2.03;1.92;;;22.90;75.20;;;;;;5018591;28;20084;-74
2023/06/19 11:20:52;;;;;;;2.22;2.13;;;22.90;74.40;;;;;;5017456;28;20062;-74
2023/06/19 11:23:27;;;;;;;2.40;2.30;;;22.90;74.40;;;;;;5002562;28;20029;-79
2023/06/19 11:25:52;;;;;;;2.17;2.08;;;22.90;74.40;;;;;;5001054;28;20057;-78
2023/06/19 11:28:22;;;;;;;2.35;2.25;;;22.90;75.20;;;;;;5005314;28;20038;-79
2023/06/19 11:30:48;;;;;;;2.53;2.42;;;22.90;74.30;;;;;;4995323;28;20050;-79
2023/06/19 11:33:22;;;;;;;2.15;2.05;;;22.90;74.30;;;;;;5020035;28;20056;-79
2023/06/19 11:35:50;;;;;;;2.33;2.22;;;22.90;74.20;;;;;;5005693;28;20045;-79
2023/06/19 11:38:23;;;;;;;2.50;2.30;;;23.00;74.20;;;;;;5005051;28;20487;-78
2023/06/19 11:40:48;;;;;;;2.67;2.58;;;22.90;74.20;;;;;;5002615;28;20042;-79
2023/06/19 11:43:30;;;;;;;2.45;2.35;;;23.00;74.00;;;;;;5018087;28;20056;-78
2023/06/19 11:46:03;;;;;;;3.10;2.90;;;23.00;74.00;;;;;;5002313;28;20532;-79
2023/06/19 11:48:28;;;;;;;2.50;2.30;;;22.90;74.00;;;;;;5018080;28;20107;-79
2023/06/19 11:50:54;;;;;;;2.30;2.20;;;22.90;74.10;;;;;;5006088;28;20053;-79
2023/06/19 11:53:20;;;;;;;2.20;2.10;;;23.00;74.10;;;;;;5005570;28;20503;-78
2023/06/19 11:55:46;;;;;;;2.08;1.98;;;23.00;74.00;;;;;;5000793;28;20034;-79
2023/06/19 11:58:11;;;;;;;2.10;2.00;;;23.00;73.90;;;;;;5002381;28;20056;-79
2023/06/19 12:00:37;;;;;;;2.53;2.42;;;23.00;73.90;;;;;;5000101;28;20049;-79
2023/06/19 12:03:03;;;;;;;2.35;2.25;;;23.00;73.90;;;;;;5019993;28;20511;-79
2023/06/19 12:05:29;;;;;;;2.53;2.42;;;23.00;73.80;;;;;;5005308;28;20050;-79
2023/06/19 12:07:54;;;;;;;2.35;2.25;;;23.00;73.80;;;;;;5004233;28;20042;-79
2023/06/19 12:10:20;;;;;;;2.30;2.20;;;23.00;73.90;;;;;;5002830;28;20088;-78
2023/06/19 12:12:45;;;;;;;2.10;2.00;;;23.00;73.90;;;;;;5002478;28;20054;-78
2023/06/19 12:15:11;;;;;;;2.70;2.60;;;23.00;73.90;;;;;;5009856;28;20034;-79
2023/06/19 12:17:37;;;;;;;2.10;2.00;;;23.00;73.80;;;;;;5006329;28;20045;-78
2023/06/19 12:20:05;;;;;;;2.42;2.33;;;23.10;73.80;;;;;;5008824;28;20125;-78
2023/06/19 12:22:32;;;;;;;2.47;2.38;;;23.00;73.80;;;;;;5007416;28;20503;-78
2023/06/19 12:24:57;;;;;;;2.40;2.30;;;23.00;73.70;;;;;;5005981;28;20093;-79
2023/06/19 12:27:23;;;;;;;2.22;2.13;;;23.10;73.80;;;;;;5007929;28;20054;-78
2023/06/19 12:29:49;;;;;;;2.40;2.30;;;23.10;73.60;;;;;;5009448;28;20108;-78
2023/06/19 12:32:14;;;;;;;2.67;2.58;;;23.10;73.60;;;;;;5009375;28;20080;-79
2023/06/19 12:34:40;;;;;;;2.20;2.10;;;23.10;73.60;;;;;;5007486;28;20583;-79
2023/06/19 12:37:06;;;;;;;2.30;2.20;;;23.10;73.60;;;;;;5022703;28;20037;-79
2023/06/19 12:39:32;;;;;;;2.42;2.33;;;23.10;74.00;;;;;;5005543;28;20050;-78
2023/06/19 12:41:58;;;;;;;2.13;2.03;;;23.10;74.10;;;;;;5009323;28;20657;-78
2023/06/19 12:44:24;;;;;;;2.40;2.30;;;23.10;73.60;;;;;;5004514;28;20038;-78
2023/06/19 12:46:50;;;;;;;2.22;2.13;;;23.10;73.60;;;;;;5007308;28;20076;-78